Time;durP1;ratioP1;P1;durP2;ratioP2;P2;SDS_P1;SDS_P2;PMS_P1;PMS_P2;Temp;Humidity;BMP_temperature;BMP_pressure;BME280_temperature;BME280_humidity;BME280_pressure;Samples;Min_cycle;Max_cycle;Signal;HPM_P1;HPM_P2
2022/10/13 00:00:26;;;;;;;25.23;15.60;;;;;;;9.31;100.00;101363.50;4955101;28;20541;-76
2022/10/13 00:02:53;;;;;;;25.98;16.20;;;;;;;9.31;100.00;101358.28;4954600;28;20094;-77
2022/10/13 00:05:21;;;;;;;26.80;17.08;;;;;;;9.29;100.00;101358.41;4954492;28;20051;-76
2022/10/13 00:07:47;;;;;;;25.42;17.02;;;;;;;9.25;100.00;101367.44;4954506;28;20093;-77
2022/10/13 00:10:14;;;;;;;29.55;18.50;;;;;;;9.29;100.00;101368.03;4954366;28;20174;-77
2022/10/13 00:12:40;;;;;;;28.80;17.55;;;;;;;9.28;100.00;101374.19;4955229;28;20477;-77
2022/10/13 00:15:10;;;;;;;27.05;17.70;;;;;;;9.23;100.00;101363.31;4954605;28;20610;-77
2022/10/13 00:17:37;;;;;;;27.35;16.58;;;;;;;9.20;100.00;101360.97;4953880;29;20133;-77
2022/10/13 00:20:04;;;;;;;24.30;16.50;;;;;;;9.23;100.00;101358.91;4956550;28;20115;-78
2022/10/13 00:22:32;;;;;;;26.10;16.95;;;;;;;9.18;100.00;101355.88;4956575;28;20110;-78
2022/10/13 00:25:01;;;;;;;28.58;16.20;;;;;;;9.18;100.00;101350.66;4957046;28;20547;-79
2022/10/13 00:27:28;;;;;;;26.63;18.77;;;;;;;9.15;100.00;101345.69;4958084;28;20083;-79
2022/10/13 00:29:55;;;;;;;33.47;19.67;;;;;;;9.14;100.00;101358.84;4957023;28;20047;-79
2022/10/13 00:32:22;;;;;;;31.92;18.98;;;;;;;9.11;100.00;101351.28;4957568;28;20059;-77
2022/10/13 00:34:49;;;;;;;28.67;16.95;;;;;;;9.08;100.00;101344.53;4958313;28;20134;-79
2022/10/13 00:37:15;;;;;;;28.20;18.33;;;;;;;9.07;100.00;101353.31;4957874;28;20098;-77
2022/10/13 00:39:43;;;;;;;30.95;17.27;;;;;;;9.10;100.00;101352.25;4957675;28;20086;-79
2022/10/13 00:42:12;;;;;;;30.23;19.08;;;;;;;9.08;100.00;101351.53;4957590;28;20529;-78
2022/10/13 00:45:00;;;;;;;27.80;18.23;;;;;;;9.08;100.00;101352.38;4957621;28;20047;-77
2022/10/13 00:47:30;;;;;;;27.40;18.23;;;;;;;9.06;100.00;101354.28;4953519;28;20143;-76
2022/10/13 00:49:57;;;;;;;32.47;17.95;;;;;;;9.09;100.00;101346.19;4954447;28;20043;-77
2022/10/13 00:52:29;;;;;;;36.35;18.55;;;;;;;9.10;100.00;101357.47;4954347;28;20047;-77
2022/10/13 00:54:57;;;;;;;36.15;20.90;;;;;;;9.10;100.00;101347.00;4954348;28;20089;-77
2022/10/13 00:57:24;;;;;;;33.88;20.80;;;;;;;9.05;100.00;101341.34;4954262;28;20055;-76
2022/10/13 00:59:52;;;;;;;33.00;19.73;;;;;;;9.10;100.00;101347.00;4954128;28;20047;-77
2022/10/13 01:02:19;;;;;;;29.23;18.45;;;;;;;9.13;100.00;101341.53;4954247;28;20083;-77
2022/10/13 01:04:47;;;;;;;31.13;18.98;;;;;;;9.14;100.00;101335.34;4954688;28;20130;-76
2022/10/13 01:07:16;;;;;;;34.53;21.38;;;;;;;9.19;100.00;101338.41;4954205;28;20427;-76
2022/10/13 01:09:43;;;;;;;32.25;19.40;;;;;;;9.21;100.00;101328.66;4955610;28;20066;-78
2022/10/13 01:12:26;;;;;;;30.15;18.00;;;;;;;9.23;100.00;101329.38;4955963;28;20055;-79
2022/10/13 01:14:58;;;;;;;27.25;17.40;;;;;;;9.19;100.00;101325.34;4955526;28;20114;-76
2022/10/13 01:17:33;;;;;;;30.17;18.10;;;;;;;9.16;100.00;101321.22;4954688;28;20386;-78
2022/10/13 01:20:37;;;;;;;29.65;17.70;;;;;;;9.10;100.00;101313.06;4953781;28;20308;-78
2022/10/13 01:23:18;;;;;;;36.85;19.30;;;;;;;9.07;100.00;101306.31;4949571;28;20544;-79
2022/10/13 01:26:14;;;;;;;28.48;18.92;;;;;;;9.07;100.00;101315.94;4954389;28;20570;-77
2022/10/13 01:28:59;;;;;;;32.08;19.40;;;;;;;8.98;100.00;101294.88;4948911;29;20310;-78
2022/10/13 01:31:35;;;;;;;30.02;17.70;;;;;;;9.04;100.00;101316.19;4953778;28;20134;-78
2022/10/13 01:34:10;;;;;;;30.90;17.98;;;;;;;9.03;100.00;101304.09;4953860;28;20478;-77
2022/10/13 01:36:43;;;;;;;29.05;19.70;;;;;;;9.01;100.00;101300.78;4953423;28;20138;-78
2022/10/13 01:39:23;;;;;;;30.02;18.20;;;;;;;9.07;100.00;101306.31;4953587;28;20589;-77
2022/10/13 01:41:54;;;;;;;33.42;18.67;;;;;;;9.06;100.00;101301.25;4954150;28;20146;-77
2022/10/13 01:44:26;;;;;;;36.28;18.70;;;;;;;9.07;100.00;101302.88;4953742;28;20051;-77
2022/10/13 01:46:55;;;;;;;32.15;19.33;;;;;;;9.06;100.00;101303.84;4955091;28;20118;-77
2022/10/13 01:49:27;;;;;;;30.42;17.65;;;;;;;9.04;100.00;101310.97;4955446;28;20087;-78
2022/10/13 01:51:55;;;;;;;30.08;19.50;;;;;;;9.03;100.00;101299.72;4956832;28;20087;-78
2022/10/13 01:54:21;;;;;;;31.30;17.90;;;;;;;9.08;100.00;101302.75;4953357;28;20130;-77
2022/10/13 01:56:52;;;;;;;37.28;18.48;;;;;;;9.05;100.00;101307.41;4953653;28;20047;-77
2022/10/13 01:59:20;;;;;;;32.40;18.08;;;;;;;9.06;100.00;101298.63;4955055;28;20295;-78
2022/10/13 02:02:00;;;;;;;26.27;17.88;;;;;;;9.07;100.00;101284.63;4956244;28;20052;-77
2022/10/13 02:04:41;;;;;;;29.95;17.70;;;;;;;9.12;100.00;101285.88;4953512;28;20098;-77
2022/10/13 02:07:16;;;;;;;32.08;18.40;;;;;;;9.16;100.00;101294.28;4952932;28;20055;-78
2022/10/13 02:09:54;;;;;;;26.08;18.10;;;;;;;9.16;100.00;101289.06;4952353;28;20083;-78
2022/10/13 02:12:27;;;;;;;34.00;18.38;;;;;;;9.18;100.00;101294.97;4953092;28;20055;-78
2022/10/13 02:14:57;;;;;;;32.45;19.85;;;;;;;9.21;100.00;101292.94;4953151;28;20069;-78
2022/10/13 02:17:26;;;;;;;36.35;19.02;;;;;;;9.26;100.00;101292.53;4952943;28;20130;-79
2022/10/13 02:19:54;;;;;;;31.85;18.65;;;;;;;9.30;100.00;101284.31;4952651;28;20051;-77
2022/10/13 02:22:24;;;;;;;35.75;18.48;;;;;;;9.35;100.00;101283.94;4952651;28;20238;-78
2022/10/13 02:24:50;;;;;;;30.83;17.13;;;;;;;9.35;100.00;101280.50;4952360;28;20055;-78
2022/10/13 02:27:17;;;;;;;28.05;18.15;;;;;;;9.39;100.00;101276.66;4955546;28;20051;-77
2022/10/13 02:29:52;;;;;;;30.20;17.08;;;;;;;9.38;100.00;101273.22;4955710;28;20415;-78
2022/10/13 02:32:19;;;;;;;28.42;18.10;;;;;;;9.36;100.00;101280.34;4956113;28;20466;-78
2022/10/13 02:34:47;;;;;;;27.63;17.95;;;;;;;9.39;100.00;101268.81;4956589;28;20134;-78
2022/10/13 02:37:15;;;;;;;29.52;18.58;;;;;;;9.37;100.00;101276.78;4956096;28;20086;-79
2022/10/13 02:39:42;;;;;;;31.13;17.60;;;;;;;9.36;100.00;101279.53;4956352;28;20057;-79
2022/10/13 02:42:09;;;;;;;34.03;18.83;;;;;;;9.34;100.00;101287.50;4956578;28;20066;-79
2022/10/13 02:44:35;;;;;;;39.45;19.55;;;;;;;9.29;100.00;101293.13;4957214;28;20054;-78
2022/10/13 02:47:02;;;;;;;32.45;18.88;;;;;;;9.30;100.00;101291.31;4956843;28;20138;-80
2022/10/13 02:49:28;;;;;;;30.17;18.75;;;;;;;9.31;100.00;101287.75;4957302;28;20057;-78
2022/10/13 02:51:56;;;;;;;33.22;19.33;;;;;;;9.31;100.00;101298.22;4957992;28;20102;-78
2022/10/13 02:54:23;;;;;;;31.45;18.77;;;;;;;9.30;100.00;101291.31;4957794;28;20051;-78
2022/10/13 02:56:50;;;;;;;35.30;19.77;;;;;;;9.30;100.00;101286.09;4958274;28;20079;-79
2022/10/13 02:59:16;;;;;;;32.00;19.08;;;;;;;9.32;100.00;101292.03;4958219;28;20481;-78
2022/10/13 03:01:43;;;;;;;30.63;18.42;;;;;;;9.29;100.00;101284.44;4959986;28;20138;-78
2022/10/13 03:04:11;;;;;;;34.65;18.55;;;;;;;9.31;100.00;101287.75;4957770;28;20090;-79
2022/10/13 03:06:38;;;;;;;36.13;19.67;;;;;;;9.33;100.00;101285.84;4956234;28;20051;-78
2022/10/13 03:09:06;;;;;;;30.65;19.63;;;;;;;9.35;100.00;101270.03;4955441;28;20114;-79
2022/10/13 03:11:33;;;;;;;32.28;18.85;;;;;;;9.40;100.00;101273.91;4955832;28;20142;-78
2022/10/13 03:13:59;;;;;;;31.63;19.70;;;;;;;9.41;100.00;101272.94;4955888;28;20187;-78
2022/10/13 03:16:26;;;;;;;37.17;20.63;;;;;;;9.43;100.00;101268.44;4955635;28;20493;-78
2022/10/13 03:18:52;;;;;;;32.47;19.55;;;;;;;9.42;100.00;101266.78;4955320;28;20050;-77
2022/10/13 03:21:19;;;;;;;33.30;18.95;;;;;;;9.43;100.00;101262.38;4955701;28;20058;-78
2022/10/13 03:23:46;;;;;;;33.08;19.60;;;;;;;9.43;100.00;101257.97;4956330;28;20343;-77
2022/10/13 03:26:15;;;;;;;34.55;19.10;;;;;;;9.42;100.00;101258.94;4955918;28;20129;-78
2022/10/13 03:28:41;;;;;;;28.85;18.33;;;;;;;9.41;100.00;101251.22;4955473;28;20106;-78
2022/10/13 03:31:10;;;;;;;33.90;18.20;;;;;;;9.42;100.00;101253.72;4955713;28;20054;-78
2022/10/13 03:33:37;;;;;;;29.63;19.55;;;;;;;9.40;100.00;101245.19;4955618;28;20141;-78
2022/10/13 03:36:07;;;;;;;33.47;19.20;;;;;;;9.40;100.00;101249.56;4956005;28;20114;-79
2022/10/13 03:38:34;;;;;;;30.63;18.73;;;;;;;9.35;100.00;101242.13;4954652;28;20062;-79
2022/10/13 03:41:04;;;;;;;31.58;18.80;;;;;;;9.36;100.00;101243.78;4955527;28;20114;-79
2022/10/13 03:43:32;;;;;;;29.05;19.77;;;;;;;9.31;100.00;101241.56;4955930;28;20051;-80
2022/10/13 03:46:01;;;;;;;33.08;18.33;;;;;;;9.32;100.00;101237.19;4955791;28;20043;-78
2022/10/13 03:48:31;;;;;;;31.17;18.73;;;;;;;9.34;100.00;101248.31;4955582;28;20458;-79
2022/10/13 03:50:58;;;;;;;27.48;18.48;;;;;;;9.34;100.00;101245.72;4954966;28;20051;-78
2022/10/13 03:53:26;;;;;;;31.30;21.02;;;;;;;9.37;100.00;101239.41;4954688;28;20201;-77
2022/10/13 03:55:54;;;;;;;31.30;19.65;;;;;;;9.29;100.00;101229.59;4955802;28;20051;-79
2022/10/13 03:58:23;;;;;;;31.27;18.85;;;;;;;9.34;100.00;101243.09;4955100;28;20052;-77
2022/10/13 04:00:51;;;;;;;31.88;18.25;;;;;;;9.36;100.00;101243.78;4955625;28;20051;-79
2022/10/13 04:03:18;;;;;;;32.03;18.73;;;;;;;9.34;100.00;101250.09;4957403;28;20055;-79
2022/10/13 04:05:45;;;;;;;32.30;19.17;;;;;;;9.39;100.00;101247.94;4957134;28;20051;-79
2022/10/13 04:08:14;;;;;;;32.70;18.45;;;;;;;9.42;100.00;101243.25;4956090;28;20057;-78
2022/10/13 04:10:41;;;;;;;28.85;18.65;;;;;;;9.40;100.00;101242.56;4956503;28;20051;-79
2022/10/13 04:13:08;;;;;;;29.02;19.50;;;;;;;9.34;100.00;101243.09;4957225;28;20561;-79
2022/10/13 04:15:39;;;;;;;33.42;18.55;;;;;;;9.35;100.00;101242.13;4956137;28;20165;-78
2022/10/13 04:18:08;;;;;;;30.40;18.88;;;;;;;9.36;100.00;101241.19;4953943;28;20086;-78
2022/10/13 04:20:39;;;;;;;35.13;18.27;;;;;;;9.34;100.00;101235.25;4954346;28;20055;-78
2022/10/13 04:23:06;;;;;;;32.83;19.25;;;;;;;9.31;100.00;101245.97;4954794;28;20075;-77
2022/10/13 04:25:34;;;;;;;31.13;19.38;;;;;;;9.28;100.00;101238.41;4955192;28;20137;-78
2022/10/13 04:28:04;;;;;;;30.10;19.15;;;;;;;9.26;100.00;101238.53;4954298;28;20073;-76
2022/10/13 04:30:32;;;;;;;31.00;18.60;;;;;;;9.23;100.00;101233.56;4953447;28;20541;-78
2022/10/13 04:32:59;;;;;;;35.15;20.65;;;;;;;9.19;100.00;101226.13;4954012;29;20117;-79
2022/10/13 04:35:27;;;;;;;31.10;19.83;;;;;;;9.22;100.00;101238.94;4953948;28;20161;-77
2022/10/13 04:37:53;;;;;;;32.38;20.88;;;;;;;9.25;100.00;101234.28;4953647;28;20156;-78
2022/10/13 04:40:20;;;;;;;32.22;20.27;;;;;;;9.25;100.00;101230.84;4953679;28;20459;-74
2022/10/13 04:42:46;;;;;;;34.38;21.13;;;;;;;9.22;100.00;101234.53;4953419;28;20090;-76
2022/10/13 04:45:13;;;;;;;39.92;23.88;;;;;;;9.26;100.00;101233.31;4953709;28;20083;-77
2022/10/13 04:47:39;;;;;;;31.92;19.98;;;;;;;9.28;100.00;101220.13;4953770;28;20048;-77
2022/10/13 04:50:07;;;;;;;32.33;19.95;;;;;;;9.29;100.00;101230.44;4953706;28;20054;-77
2022/10/13 04:52:35;;;;;;;35.92;20.83;;;;;;;9.26;100.00;101233.31;4954313;28;20134;-76
2022/10/13 04:55:02;;;;;;;33.75;21.15;;;;;;;9.30;100.00;101228.66;4954539;28;20134;-77
2022/10/13 04:57:29;;;;;;;37.47;20.92;;;;;;;9.27;100.00;101219.28;4953771;28;20130;-76
2022/10/13 04:59:55;;;;;;;34.88;22.10;;;;;;;9.25;100.00;101212.56;4955068;28;20086;-79
2022/10/13 05:02:22;;;;;;;30.83;20.58;;;;;;;9.26;100.00;101222.03;4954755;28;20471;-78
2022/10/13 05:04:49;;;;;;;34.95;20.88;;;;;;;9.26;100.00;101219.44;4955612;28;20532;-77
2022/10/13 05:07:15;;;;;;;32.78;20.58;;;;;;;9.29;100.00;101227.00;4955373;28;20087;-78
2022/10/13 05:09:43;;;;;;;34.45;19.40;;;;;;;9.28;100.00;101212.28;4960191;28;20054;-78
2022/10/13 05:12:10;;;;;;;28.73;20.00;;;;;;;9.27;100.00;101208.03;4956889;28;20147;-79
2022/10/13 05:14:37;;;;;;;36.60;19.65;;;;;;;9.27;100.00;101219.28;4953609;28;20133;-77
2022/10/13 05:17:03;;;;;;;29.13;19.67;;;;;;;9.27;100.00;101214.06;4953156;28;20126;-78
2022/10/13 05:19:30;;;;;;;35.95;19.65;;;;;;;9.26;100.00;101211.59;4952955;28;20098;-79
2022/10/13 05:21:58;;;;;;;30.35;19.08;;;;;;;9.22;100.00;101220.66;4954328;28;20047;-79
2022/10/13 05:24:35;;;;;;;36.35;20.70;;;;;;;9.28;100.00;101217.50;4953654;28;20545;-78
2022/10/13 05:27:04;;;;;;;36.35;19.00;;;;;;;9.26;100.00;101206.38;4953768;28;20047;-79
2022/10/13 05:29:30;;;;;;;30.52;19.92;;;;;;;9.28;100.00;101214.91;4952654;28;20047;-78
2022/10/13 05:31:57;;;;;;;30.23;20.13;;;;;;;9.35;100.00;101217.81;4953426;28;20185;-79
2022/10/13 05:34:24;;;;;;;35.17;19.60;;;;;;;9.35;100.00;101210.78;4953240;28;20051;-78
2022/10/13 05:36:50;;;;;;;33.05;19.60;;;;;;;9.31;100.00;101193.75;4954075;28;20133;-78
2022/10/13 05:39:17;;;;;;;32.78;20.88;;;;;;;9.32;100.00;101195.38;4953072;28;20122;-78
2022/10/13 05:41:43;;;;;;;38.03;19.83;;;;;;;9.33;100.00;101197.03;4954204;28;20062;-78
2022/10/13 05:44:11;;;;;;;30.85;19.40;;;;;;;9.30;100.00;101199.91;4954490;28;20586;-79
2022/10/13 05:46:38;;;;;;;29.50;19.88;;;;;;;9.26;100.00;101193.31;4953987;28;20127;-77
2022/10/13 05:49:05;;;;;;;34.58;19.25;;;;;;;9.25;100.00;101197.72;4952291;28;20057;-78
2022/10/13 05:51:35;;;;;;;36.72;20.85;;;;;;;9.27;100.00;101205.41;4952401;28;20564;-77
2022/10/13 05:54:06;;;;;;;36.20;19.27;;;;;;;9.25;100.00;101196.88;4952785;28;20051;-76
2022/10/13 05:56:37;;;;;;;38.90;21.08;;;;;;;9.26;100.00;101201.97;4952640;28;20061;-78
2022/10/13 05:59:07;;;;;;;30.55;19.88;;;;;;;9.22;100.00;101197.16;4952133;28;20416;-77
2022/10/13 06:01:39;;;;;;;33.90;20.15;;;;;;;9.23;100.00;101196.19;4955079;28;20086;-78
2022/10/13 06:04:09;;;;;;;33.00;20.17;;;;;;;9.25;100.00;101207.31;4957147;28;20062;-78
2022/10/13 06:06:36;;;;;;;40.95;21.25;;;;;;;9.18;100.00;101187.94;4957028;28;20518;-78
2022/10/13 06:09:02;;;;;;;34.78;20.95;;;;;;;9.21;100.00;101193.72;4956452;28;20506;-77
2022/10/13 06:11:29;;;;;;;32.97;20.00;;;;;;;9.22;100.00;101190.13;4957102;28;20424;-77
2022/10/13 06:13:55;;;;;;;34.40;19.80;;;;;;;9.20;100.00;101186.84;4955619;28;20146;-77
2022/10/13 06:16:22;;;;;;;31.75;19.77;;;;;;;9.19;100.00;101174.72;4955991;28;20130;-77
2022/10/13 06:18:50;;;;;;;31.27;19.58;;;;;;;9.23;100.00;101191.78;4955175;28;20106;-77
2022/10/13 06:21:17;;;;;;;33.60;19.42;;;;;;;9.23;100.00;101190.97;4956323;28;20079;-76
2022/10/13 06:23:43;;;;;;;31.05;18.83;;;;;;;9.25;100.00;101187.25;4956162;28;20054;-76
2022/10/13 06:26:10;;;;;;;33.22;18.23;;;;;;;9.26;100.00;101183.69;4956132;28;20098;-77
2022/10/13 06:28:37;;;;;;;34.05;19.55;;;;;;;9.25;100.00;101194.28;4955649;28;20074;-77
2022/10/13 06:31:05;;;;;;;32.53;20.15;;;;;;;9.30;100.00;101197.31;4955839;28;20126;-76
2022/10/13 06:33:32;;;;;;;31.65;19.85;;;;;;;9.31;100.00;101191.13;4955592;28;20043;-76
2022/10/13 06:36:03;;;;;;;30.23;19.92;;;;;;;9.31;100.00;101189.34;4956585;28;20078;-77
2022/10/13 06:38:29;;;;;;;32.92;19.02;;;;;;;9.35;100.00;101182.06;4955494;28;20055;-76
2022/10/13 06:40:59;;;;;;;35.67;20.17;;;;;;;9.35;100.00;101192.50;4955876;28;20059;-77
2022/10/13 06:43:26;;;;;;;32.53;20.52;;;;;;;9.37;100.00;101182.75;4956032;28;20574;-78
2022/10/13 06:45:52;;;;;;;36.47;19.70;;;;;;;9.43;100.00;101189.22;4955695;28;20051;-77
2022/10/13 06:48:19;;;;;;;30.38;19.45;;;;;;;9.45;100.00;101190.72;4955162;28;20395;-76
2022/10/13 06:50:46;;;;;;;30.98;19.42;;;;;;;9.49;100.00;101184.25;4956412;28;20061;-77
2022/10/13 06:53:14;;;;;;;35.65;20.10;;;;;;;9.53;100.00;101185.66;4956223;28;20134;-77
2022/10/13 06:55:42;;;;;;;33.00;19.42;;;;;;;9.58;100.00;101186.06;4955729;28;20059;-76
2022/10/13 06:58:09;;;;;;;33.95;19.17;;;;;;;9.67;100.00;101184.44;4954847;28;20083;-78
2022/10/13 07:00:36;;;;;;;29.00;19.35;;;;;;;9.83;100.00;101191.75;4940185;29;20518;-77
2022/10/13 07:03:03;;;;;;;30.33;18.38;;;;;;;9.92;100.00;101188.31;4955746;28;20062;-77
2022/10/13 07:05:29;;;;;;;33.38;19.52;;;;;;;9.97;100.00;101188.69;4955396;28;20074;-78
2022/10/13 07:07:56;;;;;;;30.27;19.08;;;;;;;10.07;100.00;101192.13;4955785;28;20055;-77
2022/10/13 07:10:24;;;;;;;32.20;19.13;;;;;;;10.20;100.00;101197.09;4955317;28;20083;-78
2022/10/13 07:12:51;;;;;;;30.83;18.25;;;;;;;10.14;100.00;101193.22;4954032;28;20130;-78
2022/10/13 07:15:17;;;;;;;31.00;18.95;;;;;;;10.20;100.00;101190.09;4955702;28;20398;-78
2022/10/13 07:17:44;;;;;;;32.78;19.05;;;;;;;10.19;100.00;101188.44;4946275;29;20057;-77
2022/10/13 07:20:11;;;;;;;31.40;19.05;;;;;;;10.23;100.00;101181.97;4954708;28;20079;-78
2022/10/13 07:22:38;;;;;;;28.30;18.95;;;;;;;10.34;100.00;101185.38;4955083;28;20086;-77
2022/10/13 07:25:05;;;;;;;30.33;18.35;;;;;;;10.28;100.00;101179.75;4954668;28;20098;-77
2022/10/13 07:27:33;;;;;;;32.85;19.58;;;;;;;10.28;100.00;101177.13;4953438;29;20051;-78
2022/10/13 07:30:00;;;;;;;31.42;18.13;;;;;;;10.35;100.00;101179.19;4953534;28;20153;-77
2022/10/13 07:32:27;;;;;;;32.83;19.60;;;;;;;10.41;100.00;101168.97;4953604;28;20192;-77
2022/10/13 07:34:54;;;;;;;28.67;19.02;;;;;;;10.44;100.00;101165.25;4954296;28;20428;-78
2022/10/13 07:37:20;;;;;;;28.80;18.35;;;;;;;10.57;100.00;101184.91;4954402;28;20122;-75
2022/10/13 07:39:47;;;;;;;28.08;18.45;;;;;;;10.60;100.00;101181.19;4953771;28;20078;-77
2022/10/13 07:42:14;;;;;;;31.88;18.98;;;;;;;10.72;100.00;101180.03;4953589;28;20114;-75
2022/10/13 07:44:41;;;;;;;26.35;18.45;;;;;;;10.70;100.00;101183.75;4952785;28;20518;-76
2022/10/13 07:47:08;;;;;;;28.77;17.25;;;;;;;10.67;100.00;101174.41;4952932;28;20122;-74
2022/10/13 07:49:35;;;;;;;30.08;18.63;;;;;;;10.74;100.00;101180.72;4952533;28;20145;-76
2022/10/13 07:52:02;;;;;;;25.23;17.95;;;;;;;10.90;100.00;101180.91;4953769;28;20522;-77
2022/10/13 07:54:29;;;;;;;26.27;18.48;;;;;;;10.95;100.00;101178.69;4953127;28;20512;-76
2022/10/13 07:56:56;;;;;;;32.55;18.08;;;;;;;11.05;100.00;101183.88;4954434;28;20504;-73
2022/10/13 07:59:23;;;;;;;32.67;18.98;;;;;;;11.25;100.00;101184.63;4952499;28;20047;-74
2022/10/13 08:01:51;;;;;;;27.75;17.88;;;;;;;11.24;100.00;101180.34;4952887;28;20050;-75
2022/10/13 08:04:17;;;;;;;27.25;18.23;;;;;;;11.48;100.00;101185.81;4952724;28;20477;-74
2022/10/13 08:06:46;;;;;;;27.42;17.83;;;;;;;11.56;100.00;101193.78;4953291;28;20106;-75
2022/10/13 08:09:12;;;;;;;29.35;17.90;;;;;;;11.74;100.00;101200.84;4952114;28;20070;-75
2022/10/13 08:11:39;;;;;;;26.92;17.55;;;;;;;11.97;100.00;101202.03;4952685;28;20421;-75
2022/10/13 08:14:06;;;;;;;33.05;17.80;;;;;;;11.95;100.00;101194.31;4952453;28;20059;-74
2022/10/13 08:16:33;;;;;;;31.65;16.65;;;;;;;12.05;100.00;101194.25;4952350;28;20078;-76
2022/10/13 08:19:01;;;;;;;30.85;17.55;;;;;;;11.98;100.00;101187.13;4949341;29;19944;-74
2022/10/13 08:21:28;;;;;;;24.98;16.92;;;;;;;12.06;100.00;101201.13;4953262;28;20125;-76
2022/10/13 08:23:55;;;;;;;27.65;18.33;;;;;;;12.13;100.00;101196.13;4948748;28;20066;-75
2022/10/13 08:26:24;;;;;;;27.48;17.77;;;;;;;12.17;100.00;101194.84;4946813;29;20061;-77
2022/10/13 08:28:51;;;;;;;27.17;17.38;;;;;;;12.35;100.00;101194.78;4953353;28;20146;-76
2022/10/13 08:31:18;;;;;;;27.25;17.75;;;;;;;12.22;100.00;101190.78;4953222;28;20070;-76
2022/10/13 08:33:46;;;;;;;27.02;17.25;;;;;;;12.17;100.00;101186.97;4951945;28;20054;-76
2022/10/13 08:36:14;;;;;;;29.25;17.13;;;;;;;12.15;100.00;101183.66;4953988;28;20516;-75
2022/10/13 08:38:41;;;;;;;29.40;17.70;;;;;;;12.21;100.00;101176.00;4954300;28;20039;-75
2022/10/13 08:41:16;;;;;;;28.45;17.80;;;;;;;12.25;100.00;101174.72;4955335;28;20134;-76
2022/10/13 08:43:48;;;;;;;25.80;17.17;;;;;;;12.44;100.00;101170.25;4955744;28;20058;-75
2022/10/13 08:46:19;;;;;;;27.58;16.92;;;;;;;12.54;100.00;101176.22;4953788;28;20525;-76
2022/10/13 08:48:46;;;;;;;27.35;17.50;;;;;;;12.58;100.00;101154.75;4952766;28;20053;-74
2022/10/13 08:51:15;;;;;;;31.50;17.63;;;;;;;12.68;99.65;101162.50;4953935;28;20090;-76
2022/10/13 08:53:45;;;;;;;31.42;17.40;;;;;;;13.00;98.89;101164.44;4953545;28;20130;-76
2022/10/13 08:56:18;;;;;;;27.05;17.67;;;;;;;13.19;97.33;101158.13;4953707;28;20059;-76
2022/10/13 08:58:45;;;;;;;26.65;16.02;;;;;;;13.93;95.70;101165.13;4947905;28;20055;-76
2022/10/13 09:01:15;;;;;;;26.83;16.23;;;;;;;14.20;92.48;101154.22;4952917;28;20051;-76
2022/10/13 09:03:49;;;;;;;26.17;16.45;;;;;;;14.22;92.28;101154.06;4953191;28;20054;-77
2022/10/13 09:06:26;;;;;;;28.75;15.77;;;;;;;14.24;91.10;101160.00;4953722;28;20055;-76
2022/10/13 09:08:57;;;;;;;27.40;15.85;;;;;;;14.40;91.73;101162.59;4952676;28;20047;-76
2022/10/13 09:11:28;;;;;;;26.15;14.70;;;;;;;14.31;91.75;101160.16;4934120;29;20056;-76
2022/10/13 09:13:56;;;;;;;23.50;15.43;;;;;;;14.08;91.81;101150.31;4934292;29;20047;-75
2022/10/13 09:16:33;;;;;;;31.05;19.95;;;;;;;14.48;91.11;101154.72;4947215;29;20470;-76
2022/10/13 09:19:19;;;;;;;26.58;15.63;;;;;;;14.68;90.36;101152.50;4947923;28;20457;-77
2022/10/13 09:21:48;;;;;;;25.40;15.25;;;;;;;14.42;90.12;101144.03;4940382;29;20511;-77
2022/10/13 09:24:16;;;;;;;26.50;15.38;;;;;;;14.33;90.23;101147.63;4947213;29;20352;-77
2022/10/13 09:26:44;;;;;;;28.05;15.25;;;;;;;14.54;90.63;101148.78;4951296;28;20518;-78
2022/10/13 09:29:16;;;;;;;24.10;14.88;;;;;;;14.94;89.54;101141.72;4953374;28;20514;-77
2022/10/13 09:31:43;;;;;;;25.25;14.43;;;;;;;15.46;88.00;101149.00;4953133;28;20138;-77
2022/10/13 09:34:15;;;;;;;22.15;14.82;;;;;;;15.08;87.70;101137.53;4953422;28;20055;-77
2022/10/13 09:37:01;;;;;;;23.30;14.18;;;;;;;15.55;86.68;101138.22;4952903;28;20138;-76
2022/10/13 09:39:28;;;;;;;22.27;14.40;;;;;;;15.68;85.42;101142.91;4956392;28;20126;-75
2022/10/13 09:42:18;;;;;;;22.42;14.02;;;;;;;15.63;84.81;101147.06;4952611;28;20054;-76
2022/10/13 09:44:46;;;;;;;22.13;13.68;;;;;;;15.89;84.82;101137.81;4946952;28;20584;-76
2022/10/13 09:47:20;;;;;;;32.40;13.98;;;;;;;15.90;83.78;101128.06;4950342;29;20212;-77
2022/10/13 09:50:00;;;;;;;27.98;13.40;;;;;;;15.81;84.93;101126.50;4952834;28;20110;-76
2022/10/13 09:52:28;;;;;;;24.17;13.57;;;;;;;15.96;83.88;101122.06;4953106;28;20082;-77
2022/10/13 09:54:58;;;;;;;21.48;13.02;;;;;;;16.00;83.47;101127.81;4953123;28;20132;-77
2022/10/13 09:57:41;;;;;;;26.50;14.43;;;;;;;16.17;83.69;101119.53;4953204;28;20055;-77
2022/10/13 10:00:17;;;;;;;19.63;11.82;;;;;;;16.38;82.18;101118.84;4952010;28;20107;-77
2022/10/13 10:02:52;;;;;;;21.58;12.50;;;;;;;16.47;81.87;101114.28;4948285;28;20481;-77
2022/10/13 10:05:25;;;;;;;24.00;11.18;;;;;;;16.74;80.48;101111.00;4951713;28;20585;-76
2022/10/13 10:07:56;;;;;;;22.20;12.15;;;;;;;17.04;80.11;101108.28;4951426;28;20126;-77
2022/10/13 10:10:32;;;;;;;25.08;12.52;;;;;;;16.83;79.14;101101.16;4952835;28;20059;-77
2022/10/13 10:12:59;;;;;;;16.05;11.15;;;;;;;16.92;78.76;101098.22;4952438;28;20086;-77
2022/10/13 10:15:33;;;;;;;21.00;11.60;;;;;;;16.81;80.50;101101.34;4945706;28;20082;-76
2022/10/13 10:18:07;;;;;;;20.67;12.00;;;;;;;17.18;78.91;101099.50;4954840;28;20042;-76
2022/10/13 10:20:54;;;;;;;19.90;10.73;;;;;;;17.23;78.63;101089.19;4952413;28;20142;-76
2022/10/13 10:23:32;;;;;;;26.52;11.20;;;;;;;16.98;78.95;101085.25;4952780;28;20138;-77
2022/10/13 10:26:02;;;;;;;19.17;10.75;;;;;;;16.95;79.74;101081.16;4952499;28;20102;-77
2022/10/13 10:28:43;;;;;;;19.92;11.15;;;;;;;17.21;78.91;101080.59;4951125;28;20130;-76
2022/10/13 10:31:20;;;;;;;19.27;9.98;;;;;;;17.22;78.03;101077.78;4951828;28;20061;-76
2022/10/13 10:33:58;;;;;;;14.05;9.23;;;;;;;17.34;78.78;101083.38;4955828;28;20157;-76
2022/10/13 10:36:33;;;;;;;17.77;9.10;;;;;;;17.21;77.23;101070.03;4941472;29;20130;-76
2022/10/13 10:39:12;;;;;;;15.40;8.73;;;;;;;17.31;77.50;101072.38;4953243;28;20043;-76
2022/10/13 10:41:49;;;;;;;12.75;8.15;;;;;;;17.34;77.21;101064.06;4953399;28;20087;-76
2022/10/13 10:44:20;;;;;;;22.30;8.25;;;;;;;17.32;77.37;101066.06;4970429;28;20557;-76
2022/10/13 10:46:49;;;;;;;14.38;8.07;;;;;;;17.47;76.95;101064.19;4963683;28;20059;-76
2022/10/13 10:49:19;;;;;;;17.67;7.95;;;;;;;17.46;76.79;101063.38;4954795;28;20043;-76
2022/10/13 10:51:46;;;;;;;14.98;7.93;;;;;;;17.55;76.15;101064.84;4954823;28;20053;-76
2022/10/13 10:54:30;;;;;;;16.73;7.70;;;;;;;17.70;76.06;101061.31;4958771;28;20083;-76
2022/10/13 10:57:03;;;;;;;11.93;7.47;;;;;;;17.55;75.52;101056.91;4955795;28;20630;-76
2022/10/13 10:59:42;;;;;;;14.32;7.80;;;;;;;17.54;75.63;101044.69;4955596;28;20126;-76
2022/10/13 11:02:25;;;;;;;13.15;7.80;;;;;;;17.50;76.09;101039.97;4957577;28;20133;-76
2022/10/13 11:04:53;;;;;;;18.60;7.50;;;;;;;17.53;75.85;101044.88;4953989;28;20137;-77
2022/10/13 11:07:49;;;;;;;14.88;7.70;;;;;;;17.50;75.84;101048.72;4961169;28;20053;-77
2022/10/13 11:10:20;;;;;;;12.40;7.57;;;;;;;17.47;74.75;101043.84;4945734;28;20138;-78
2022/10/13 11:13:03;;;;;;;10.68;7.57;;;;;;;17.53;75.78;101042.22;4964511;28;20059;-78
2022/10/13 11:15:42;;;;;;;12.25;7.47;;;;;;;17.57;76.04;101036.34;4949734;29;20069;-78
2022/10/13 11:18:46;;;;;;;12.90;7.25;;;;;;;17.46;75.54;101039.56;4970733;28;20409;-77
2022/10/13 11:21:13;;;;;;;16.63;7.10;;;;;;;17.48;75.32;101039.38;4974590;28;20055;-77